Time;durP1;ratioP1;P1;durP2;ratioP2;P2;SDS_P1;SDS_P2;PMS_P1;PMS_P2;Temp;Humidity;BMP_temperature;BMP_pressure;BME280_temperature;BME280_humidity;BME280_pressure;Samples;Min_cycle;Max_cycle;Signal;HPM_P1;HPM_P2
2021/09/09 00:00:31;;;;;;;9.50;6.50;;;;;;;9.97;78.35;98077.77;116338;1181;59551;-68
2021/09/09 00:03:05;;;;;;;8.70;5.70;;;;;;;9.95;78.27;98080.84;116331;1178;59587;-68
2021/09/09 00:05:36;;;;;;;8.90;5.90;;;;;;;9.92;78.29;98082.41;116377;1182;70433;-69
2021/09/09 00:08:06;;;;;;;7.30;5.30;;;;;;;9.90;77.76;98078.20;116328;1181;69171;-69
2021/09/09 00:10:37;;;;;;;10.60;6.50;;;;;;;9.88;78.06;98076.91;116312;1182;68302;-68
2021/09/09 00:13:08;;;;;;;9.70;5.80;;;;;;;9.86;78.36;98077.38;116213;1181;59611;-66
2021/09/09 00:15:38;;;;;;;9.10;5.90;;;;;;;9.84;78.27;98076.79;116285;1178;59501;-68
2021/09/09 00:18:08;;;;;;;;;;;;;;;9.83;78.88;98072.00;116272;1181;70762;-68
2021/09/09 00:20:42;;;;;;;9.90;6.40;;;;;;;9.76;79.78;98073.30;116386;1181;68349;-66
2021/09/09 00:23:12;;;;;;;9.70;6.20;;;;;;;9.70;80.13;98069.10;116341;1179;68262;-69
2021/09/09 00:25:42;;;;;;;10.90;7.30;;;;;;;9.65;80.28;98067.82;116301;1182;59560;-69
2021/09/09 00:28:12;;;;;;;7.70;5.50;;;;;;;9.61;79.60;98068.41;116182;1182;59574;-71
2021/09/09 00:30:42;;;;;;;6.00;4.10;;;;;;;9.59;78.33;98067.67;116355;1181;71122;-67
2021/09/09 00:33:12;;;;;;;;;;;;;;;9.56;77.99;98070.27;116400;1182;69333;-69
2021/09/09 00:35:41;;;;;;;9.10;5.60;;;;;;;9.51;81.21;98063.77;116288;1183;68460;-69
2021/09/09 00:38:11;;;;;;;7.80;5.30;;;;;;;9.49;79.34;98064.26;116333;1182;59539;-67
2021/09/09 00:40:41;;;;;;;9.30;6.20;;;;;;;9.47;78.44;98063.48;116266;1181;59511;-67
2021/09/09 00:43:10;;;;;;;8.20;5.30;;;;;;;9.46;78.64;98060.94;116267;1182;71330;-68
2021/09/09 00:45:41;;;;;;;7.20;4.80;;;;;;;9.46;77.59;98061.96;116267;1182;69327;-66
2021/09/09 00:48:11;;;;;;;8.30;5.80;;;;;;;9.47;77.06;98057.43;116244;1182;68626;-68
2021/09/09 00:50:40;;;;;;;6.70;4.80;;;;;;;9.43;77.41;98059.33;116211;1181;59667;-66
2021/09/09 00:53:11;;;;;;;7.60;4.90;;;;;;;9.40;77.55;98061.66;116283;1181;59515;-65
2021/09/09 00:55:41;;;;;;;8.40;5.10;;;;;;;9.37;77.13;98063.55;116298;1182;71301;-68
2021/09/09 00:58:11;;;;;;;7.60;4.60;;;;;;;9.34;76.83;98063.71;116279;1182;69205;-65
2021/09/09 01:00:41;;;;;;;8.40;6.50;;;;;;;9.31;76.61;98065.63;116219;1181;68425;-67
2021/09/09 01:03:12;;;;;;;9.50;6.10;;;;;;;9.28;77.82;98062.69;116263;1181;59585;-68
2021/09/09 01:05:42;;;;;;;10.30;7.60;;;;;;;9.25;78.49;98063.55;116233;1181;59551;-68
2021/09/09 01:08:12;;;;;;;7.20;4.40;;;;;;;9.22;79.67;98060.79;116291;1182;71791;-69
2021/09/09 01:10:43;;;;;;;9.00;6.00;;;;;;;9.23;77.81;98061.56;116219;1182;68489;-68
2021/09/09 01:13:12;;;;;;;7.90;5.10;;;;;;;9.27;79.00;98060.15;116243;1182;69201;-68
2021/09/09 01:15:44;;;;;;;11.60;8.40;;;;;;;9.23;80.21;98061.55;116206;1180;59558;-68
2021/09/09 01:18:14;;;;;;;9.00;6.20;;;;;;;9.17;81.24;98062.25;116226;1182;59536;-67
2021/09/09 01:20:44;;;;;;;8.00;5.40;;;;;;;9.13;80.11;98060.41;116235;1182;70259;-68
2021/09/09 01:23:14;;;;;;;8.30;6.30;;;;;;;9.10;79.13;98060.74;116255;1182;69113;-67
2021/09/09 01:25:44;;;;;;;;;;;;;;;9.06;79.98;98058.88;116271;1181;69890;-69
2021/09/09 01:28:14;;;;;;;10.60;7.00;;;;;;;9.02;79.85;98061.20;116292;1177;59516;-68
2021/09/09 01:30:44;;;;;;;6.80;5.40;;;;;;;8.98;80.59;98061.58;116270;1182;59496;-69
2021/09/09 01:33:14;;;;;;;6.50;4.60;;;;;;;8.96;79.64;98057.00;116298;1182;71526;-68
2021/09/09 01:35:45;;;;;;;8.70;5.50;;;;;;;8.92;78.87;98058.23;116289;1181;69052;-67
2021/09/09 01:38:20;;;;;;;7.90;5.00;;;;;;;8.89;79.29;98060.49;116270;1182;68229;-68
2021/09/09 01:40:51;;;;;;;8.30;4.90;;;;;;;8.87;79.11;98056.81;116254;1181;59501;-69
2021/09/09 01:43:21;;;;;;;8.80;6.20;;;;;;;8.84;79.88;98056.98;116245;1182;59536;-69
2021/09/09 01:45:51;;;;;;;9.80;5.90;;;;;;;8.83;79.68;98051.48;116287;1179;71159;-68
2021/09/09 01:48:21;;;;;;;8.80;5.70;;;;;;;8.82;79.14;98051.02;116277;1182;69634;-69
2021/09/09 01:50:51;;;;;;;7.20;4.90;;;;;;;8.80;79.66;98046.92;116244;1182;68433;-68
2021/09/09 01:53:21;;;;;;;;;;;;;;;8.78;80.04;98047.56;116222;1182;59529;-67
2021/09/09 01:55:51;;;;;;;8.10;5.00;;;;;;;8.75;79.60;98046.70;116261;1179;59539;-68
2021/09/09 01:58:20;;;;;;;6.60;4.80;;;;;;;8.77;78.52;98045.02;116200;1179;70414;-65
2021/09/09 02:00:51;;;;;;;9.30;7.10;;;;;;;8.76;78.52;98041.26;116191;1182;69020;-68
2021/09/09 02:03:21;;;;;;;9.30;6.80;;;;;;;8.80;80.22;98041.92;116265;1182;69072;-67
2021/09/09 02:05:51;;;;;;;9.00;7.10;;;;;;;8.82;80.99;98045.27;116263;1182;59542;-65
2021/09/09 02:08:22;;;;;;;8.90;6.10;;;;;;;8.77;80.80;98040.71;116227;1182;59526;-69
2021/09/09 02:10:51;;;;;;;8.80;5.80;;;;;;;8.74;79.89;98039.14;116338;1182;71282;-69
2021/09/09 02:13:21;;;;;;;7.40;5.10;;;;;;;8.70;79.87;98036.38;116298;1182;69192;-68
2021/09/09 02:15:51;;;;;;;6.70;5.50;;;;;;;8.66;79.51;98035.73;116225;1182;68562;-68
2021/09/09 02:18:21;;;;;;;4.60;3.10;;;;;;;8.62;79.23;98036.84;116322;1181;59539;-67
2021/09/09 02:20:51;;;;;;;;;;;;;;;8.57;78.87;98035.84;116320;1179;59498;-69
2021/09/09 02:23:21;;;;;;;9.80;7.00;;;;;;;8.51;79.99;98037.42;116355;1183;71348;-67
2021/09/09 02:25:53;;;;;;;7.50;4.80;;;;;;;8.44;79.45;98034.33;116378;1182;67835;-67
2021/09/09 02:28:23;;;;;;;6.90;4.80;;;;;;;8.38;78.86;98032.70;116325;1182;69038;-69
2021/09/09 02:30:52;;;;;;;6.20;4.00;;;;;;;8.35;78.73;98030.97;116190;1182;59541;-68
2021/09/09 02:33:23;;;;;;;5.80;4.40;;;;;;;8.32;78.91;98035.29;116218;1181;59527;-68
2021/09/09 02:35:53;;;;;;;10.80;6.40;;;;;;;8.29;78.71;98032.35;116270;1182;70746;-68
2021/09/09 02:38:23;;;;;;;7.20;4.90;;;;;;;8.25;79.51;98032.17;116275;1181;69085;-68
2021/09/09 02:40:53;;;;;;;8.50;5.40;;;;;;;8.23;78.77;98030.39;116288;1181;67736;-68
2021/09/09 02:43:22;;;;;;;6.70;4.90;;;;;;;8.20;78.41;98029.72;116313;1182;59558;-67
2021/09/09 02:45:52;;;;;;;5.20;3.50;;;;;;;8.16;78.15;98029.54;116301;1181;59503;-68
2021/09/09 02:48:22;;;;;;;7.80;4.70;;;;;;;8.13;78.19;98027.46;116282;1182;70605;-66
2021/09/09 02:50:52;;;;;;;8.50;5.70;;;;;;;8.10;78.70;98027.58;116299;1182;69109;-67
2021/09/09 02:53:22;;;;;;;;;;;;;;;8.08;78.45;98030.14;116231;1182;69034;-68
2021/09/09 02:55:52;;;;;;;6.50;3.30;;;;;;;8.06;78.99;98032.15;116261;1179;59558;-68
2021/09/09 02:58:22;;;;;;;6.70;4.60;;;;;;;8.03;77.97;98031.27;116254;1181;59552;-68
2021/09/09 03:00:52;;;;;;;;;;;;;;;8.01;77.45;98031.41;116255;1182;70598;-68
2021/09/09 03:03:22;;;;;;;6.30;4.00;;;;;;;7.98;77.70;98032.94;116248;1182;69159;-66
2021/09/09 03:05:52;;;;;;;6.50;4.20;;;;;;;7.93;77.29;98030.24;116226;1181;68401;-68
2021/09/09 03:08:23;;;;;;;6.20;4.10;;;;;;;7.89;77.48;98036.70;116258;1181;59571;-66
2021/09/09 03:10:53;;;;;;;4.20;3.20;;;;;;;7.86;77.14;98041.53;116260;1182;59502;-67
2021/09/09 03:13:23;;;;;;;8.20;6.00;;;;;;;7.83;76.52;98039.95;116267;1182;70559;-68
2021/09/09 03:15:53;;;;;;;;;;;;;;;7.79;78.64;98040.67;116248;1183;69165;-67
2021/09/09 03:18:23;;;;;;;7.00;4.80;;;;;;;7.76;77.99;98045.19;116404;1182;68380;-69
2021/09/09 03:20:52;;;;;;;6.10;3.50;;;;;;;7.73;77.43;98046.40;116359;1182;59530;-68
2021/09/09 03:23:22;;;;;;;7.20;5.10;;;;;;;7.70;77.41;98045.00;116365;1178;59617;-67
2021/09/09 03:25:51;;;;;;;6.70;5.00;;;;;;;7.66;78.41;98045.33;116229;1179;70530;-68
2021/09/09 03:28:21;;;;;;;7.90;4.50;;;;;;;7.63;77.80;98046.53;116273;1182;68381;-68
2021/09/09 03:30:51;;;;;;;9.00;6.30;;;;;;;7.60;78.37;98047.17;116364;1179;69061;-68
2021/09/09 03:33:20;;;;;;;7.00;5.30;;;;;;;7.59;78.91;98052.82;116317;1181;59510;-68
2021/09/09 03:35:50;;;;;;;8.80;5.80;;;;;;;7.56;79.27;98052.08;116302;1179;59526;-69
2021/09/09 03:38:19;;;;;;;6.80;4.80;;;;;;;7.54;79.56;98053.23;116229;1182;71322;-67
2021/09/09 03:40:50;;;;;;;8.40;5.50;;;;;;;7.52;78.59;98053.31;116378;1182;69181;-68
2021/09/09 03:43:20;;;;;;;8.30;6.00;;;;;;;7.50;78.83;98054.47;116244;1182;69289;-68
2021/09/09 03:45:50;;;;;;;7.80;5.10;;;;;;;7.49;79.67;98055.26;116255;1179;59533;-68
2021/09/09 03:48:19;;;;;;;9.60;6.50;;;;;;;7.44;79.70;98056.69;116261;1179;59530;-70
2021/09/09 03:50:49;;;;;;;8.30;5.30;;;;;;;7.40;79.39;98056.73;116405;1182;70186;-70
2021/09/09 03:53:18;;;;;;;10.90;7.70;;;;;;;7.36;80.03;98057.95;116363;1182;68245;-69
2021/09/09 03:55:48;;;;;;;10.90;7.10;;;;;;;7.31;79.74;98059.74;116411;1182;67347;-69
2021/09/09 03:58:19;;;;;;;10.40;7.10;;;;;;;7.29;79.72;98063.52;116324;1178;59688;-68
2021/09/09 04:00:48;;;;;;;8.70;6.60;;;;;;;7.26;79.92;98065.02;116319;1179;59539;-68
2021/09/09 04:03:18;;;;;;;8.10;6.70;;;;;;;7.26;79.00;98072.15;116311;1183;70509;-68
2021/09/09 04:05:48;;;;;;;6.10;4.40;;;;;;;7.26;78.83;98074.39;116305;1182;68261;-68
2021/09/09 04:08:18;;;;;;;8.00;6.00;;;;;;;7.27;78.52;98071.41;116246;1182;69363;-68
2021/09/09 04:10:49;;;;;;;8.50;5.10;;;;;;;7.28;78.48;98070.63;116275;1180;59543;-68
2021/09/09 04:13:18;;;;;;;7.90;5.40;;;;;;;7.34;80.14;98070.21;116242;1182;59492;-67
2021/09/09 04:15:48;;;;;;;5.60;4.00;;;;;;;7.41;78.64;98073.48;116253;1182;70348;-68
2021/09/09 04:18:18;;;;;;;9.70;6.60;;;;;;;7.53;78.77;98074.43;116268;1182;69259;-66
2021/09/09 04:20:48;;;;;;;6.40;4.90;;;;;;;7.68;78.96;98077.52;116195;1182;67438;-68
2021/09/09 04:23:18;;;;;;;8.70;5.30;;;;;;;7.88;78.66;98074.60;116433;1182;59557;-69
2021/09/09 04:25:48;;;;;;;6.80;5.50;;;;;;;8.08;78.59;98071.11;116226;1182;59567;-67
2021/09/09 04:28:17;;;;;;;10.50;5.00;;;;;;;8.31;78.21;98070.05;116220;1182;71377;-67
2021/09/09 04:30:48;;;;;;;10.10;6.10;;;;;;;8.57;77.75;98066.64;116211;1181;68530;-66
2021/09/09 04:33:19;;;;;;;9.70;6.00;;;;;;;8.84;77.57;98065.30;116405;1181;68465;-69
2021/09/09 04:35:49;;;;;;;10.10;8.20;;;;;;;9.09;76.93;98069.11;116304;1181;59634;-67
2021/09/09 04:38:18;;;;;;;9.30;5.30;;;;;;;9.33;76.35;98076.14;116158;1181;59613;-68
2021/09/09 04:40:47;;;;;;;7.10;4.80;;;;;;;9.61;75.97;98073.48;116252;1181;70424;-67
2021/09/09 04:43:17;;;;;;;9.20;6.10;;;;;;;9.96;75.88;98070.70;116229;1182;68543;-67
2021/09/09 04:45:49;;;;;;;13.30;8.70;;;;;;;10.25;72.83;98062.19;116225;1182;68419;-67
2021/09/09 04:48:18;;;;;;;10.90;7.40;;;;;;;10.40;71.75;98063.70;116296;1181;59496;-68
2021/09/09 04:50:48;;;;;;;11.00;6.70;;;;;;;10.61;71.70;98066.55;116294;1181;59555;-68
2021/09/09 04:53:18;;;;;;;12.60;9.70;;;;;;;10.86;72.08;98064.29;116293;1181;70546;-68
2021/09/09 04:55:48;;;;;;;12.50;7.60;;;;;;;11.15;70.50;98063.84;116194;1181;69118;-68
2021/09/09 04:58:17;;;;;;;13.80;8.60;;;;;;;11.43;69.83;98067.74;116244;1182;69101;-69
2021/09/09 05:00:47;;;;;;;13.60;8.40;;;;;;;11.63;66.36;98069.44;116355;1178;60675;-67
2021/09/09 05:03:17;;;;;;;10.00;6.80;;;;;;;11.87;68.94;98072.55;116281;1178;59463;-69
2021/09/09 05:05:46;;;;;;;;;;;;;;;12.15;69.16;98073.91;116360;1181;71309;-69
2021/09/09 05:08:16;;;;;;;8.50;5.60;;;;;;;12.34;66.69;98069.17;116307;1181;68374;-69
2021/09/09 05:10:44;;;;;;;13.10;8.20;;;;;;;12.71;69.07;98071.07;116283;1179;68500;-70
2021/09/09 05:13:14;;;;;;;15.20;9.50;;;;;;;13.21;66.75;98074.04;116302;1180;59546;-69
2021/09/09 05:15:43;;;;;;;10.10;7.50;;;;;;;13.59;62.53;98074.18;116320;1181;59496;-68
2021/09/09 05:18:12;;;;;;;15.30;9.60;;;;;;;13.92;62.46;98070.80;116373;1181;70631;-68
2021/09/09 05:20:41;;;;;;;13.20;8.10;;;;;;;14.08;61.20;98069.73;116374;1178;69135;-67
2021/09/09 05:23:10;;;;;;;17.30;10.50;;;;;;;14.27;60.80;98062.02;116334;1181;68460;-68
2021/09/09 05:25:39;;;;;;;21.30;13.10;;;;;;;14.40;58.97;98059.08;116337;1182;59497;-67
2021/09/09 05:28:08;;;;;;;16.00;10.60;;;;;;;14.32;58.35;98057.36;116337;1181;59508;-69
2021/09/09 05:30:37;;;;;;;17.60;10.00;;;;;;;14.31;60.04;98059.09;116349;1180;70934;-66
2021/09/09 05:33:07;;;;;;;18.90;10.60;;;;;;;14.53;60.03;98059.96;116338;1179;69201;-67
2021/09/09 05:35:36;;;;;;;20.20;10.00;;;;;;;14.73;58.95;98061.05;116365;1181;68988;-68
2021/09/09 05:38:05;;;;;;;13.20;8.90;;;;;;;15.03;58.26;98064.10;116339;1181;59571;-69
2021/09/09 05:40:34;;;;;;;15.50;7.60;;;;;;;15.30;58.88;98063.47;116253;1181;59534;-68
2021/09/09 05:43:04;;;;;;;;;;;;;;;15.78;59.31;98069.70;116250;1183;71415;-67
2021/09/09 05:45:33;;;;;;;9.60;7.10;;;;;;;16.22;56.50;98062.10;116271;1181;68201;-68
2021/09/09 05:48:04;;;;;;;10.90;6.80;;;;;;;16.43;55.20;98061.01;116213;1182;68447;-67
2021/09/09 05:50:33;;;;;;;;;;;;;;;16.58;56.88;98057.61;116351;1179;59533;-67
2021/09/09 05:53:02;;;;;;;7.60;4.60;;;;;;;16.83;56.68;98055.63;116242;1179;59521;-68
2021/09/09 05:55:31;;;;;;;6.80;5.30;;;;;;;17.25;56.79;98059.60;116276;1181;71345;-69
2021/09/09 05:58:01;;;;;;;11.40;6.20;;;;;;;17.55;54.79;98057.95;116235;1182;68560;-68
2021/09/09 06:00:31;;;;;;;8.00;6.30;;;;;;;17.76;53.38;98051.86;116236;1181;68394;-69
2021/09/09 06:03:02;;;;;;;7.80;6.10;;;;;;;17.80;52.47;98047.80;116268;1181;59548;-66
2021/09/09 06:05:34;;;;;;;7.60;4.30;;;;;;;17.86;52.99;98045.10;116240;1181;59894;-66
2021/09/09 06:08:04;;;;;;;9.20;5.80;;;;;;;18.20;53.39;98043.34;116244;1181;70572;-69
2021/09/09 06:10:34;;;;;;;6.30;4.70;;;;;;;18.41;50.67;98039.44;116256;1181;68824;-66
2021/09/09 06:13:03;;;;;;;9.10;6.10;;;;;;;18.90;50.99;98040.02;116227;1181;68544;-68
2021/09/09 06:15:32;;;;;;;12.50;6.40;;;;;;;18.71;49.44;98044.84;116201;1181;59465;-68
2021/09/09 06:18:02;;;;;;;8.00;4.80;;;;;;;19.02;50.38;98039.91;116214;1182;59530;-67
2021/09/09 06:20:32;;;;;;;;;;;;;;;19.45;48.73;98043.51;116269;1181;70362;-69
2021/09/09 06:23:01;;;;;;;5.80;4.70;;;;;;;19.94;49.40;98045.27;116231;1182;69182;-69
2021/09/09 06:25:31;;;;;;;9.10;6.40;;;;;;;20.71;47.60;98045.78;116352;1181;69007;-69
2021/09/09 06:28:00;;;;;;;8.00;6.10;;;;;;;21.00;44.77;98041.96;116310;1182;59539;-68
2021/09/09 06:30:29;;;;;;;9.00;6.60;;;;;;;20.76;44.45;98041.01;116326;1182;59548;-69
2021/09/09 06:32:59;;;;;;;6.60;4.50;;;;;;;20.28;45.29;98042.31;116177;1181;70561;-69
2021/09/09 06:35:29;;;;;;;10.00;6.20;;;;;;;20.68;44.68;98042.29;116185;1181;68409;-68
2021/09/09 06:37:58;;;;;;;5.90;4.60;;;;;;;20.94;43.76;98044.57;116281;1182;69260;-68
2021/09/09 06:40:28;;;;;;;8.80;6.10;;;;;;;21.13;43.07;98043.19;116269;1182;59486;-69
2021/09/09 06:42:57;;;;;;;5.60;4.30;;;;;;;20.88;42.95;98046.23;116270;1179;59512;-69
2021/09/09 06:45:26;;;;;;;9.00;5.70;;;;;;;21.80;43.51;98050.27;116277;1181;69630;-67
2021/09/09 06:47:56;;;;;;;7.10;5.70;;;;;;;22.18;39.99;98055.30;116297;1181;68624;-67
2021/09/09 06:50:25;;;;;;;6.90;5.60;;;;;;;22.37;40.70;98051.96;116306;1181;68605;-68
2021/09/09 06:52:54;;;;;;;6.00;4.30;;;;;;;22.83;41.07;98052.48;116277;1181;59549;-70
2021/09/09 06:55:23;;;;;;;7.90;4.00;;;;;;;23.72;38.51;98054.81;116299;1181;59520;-67
2021/09/09 06:57:53;;;;;;;5.70;4.60;;;;;;;23.75;34.84;98049.23;116295;1180;71431;-69
2021/09/09 07:00:22;;;;;;;5.70;4.00;;;;;;;23.20;35.36;98049.23;116302;1181;69069;-69
2021/09/09 07:02:51;;;;;;;6.30;4.10;;;;;;;22.93;36.73;98049.46;116259;1181;69131;-69
2021/09/09 07:05:20;;;;;;;7.40;4.50;;;;;;;22.83;36.35;98049.16;116235;1178;59542;-68
2021/09/09 07:07:50;;;;;;;8.50;4.90;;;;;;;22.74;35.49;98050.82;116267;1179;59506;-69
2021/09/09 07:10:19;;;;;;;5.20;4.00;;;;;;;22.49;34.96;98053.34;116418;1181;71595;-69
2021/09/09 07:12:48;;;;;;;;;;;;;;;23.05;34.20;98045.36;116318;1181;68351;-69
2021/09/09 07:15:17;;;;;;;5.00;3.70;;;;;;;22.81;34.62;98047.23;116281;1181;69300;-67
2021/09/09 07:17:46;;;;;;;5.90;3.60;;;;;;;23.00;33.90;98044.92;116141;1181;59552;-67
2021/09/09 07:20:15;;;;;;;5.00;3.00;;;;;;;23.25;34.53;98044.02;116351;1180;59523;-68
2021/09/09 07:22:44;;;;;;;5.50;4.10;;;;;;;23.75;34.47;98048.92;116360;1181;71444;-68
2021/09/09 07:25:13;;;;;;;;;;;;;;;23.63;33.54;98046.18;116317;1181;68424;-69
2021/09/09 07:27:43;;;;;;;6.00;3.80;;;;;;;23.67;33.20;98043.79;116298;1181;69061;-66
2021/09/09 07:30:12;;;;;;;5.30;4.00;;;;;;;23.45;33.44;98047.02;116297;1181;59587;-69
2021/09/09 07:32:41;;;;;;;7.30;4.30;;;;;;;23.35;33.72;98043.52;116331;1182;59540;-67
2021/09/09 07:35:10;;;;;;;5.00;3.30;;;;;;;22.98;33.55;98042.60;116294;1178;71263;-66
2021/09/09 07:37:40;;;;;;;4.20;3.40;;;;;;;23.02;34.95;98037.92;116330;1181;69163;-68
2021/09/09 07:40:09;;;;;;;6.50;3.70;;;;;;;23.07;35.26;98040.16;116192;1181;69992;-66
2021/09/09 07:42:39;;;;;;;5.30;4.20;;;;;;;23.03;36.03;98039.23;116251;1181;59549;-67
2021/09/09 07:45:09;;;;;;;6.00;4.00;;;;;;;22.93;35.24;98039.16;116318;1181;59480;-66
2021/09/09 07:47:40;;;;;;;6.40;4.10;;;;;;;22.87;35.05;98040.10;116331;1182;71167;-67
2021/09/09 07:50:10;;;;;;;;;;;;;;;22.66;34.96;98043.30;116330;1181;68443;-67
2021/09/09 07:52:41;;;;;;;6.30;3.70;;;;;;;22.64;35.33;98043.73;116365;1181;69303;-69
2021/09/09 07:55:10;;;;;;;4.70;3.80;;;;;;;23.14;34.33;98046.35;116320;1181;59532;-69
2021/09/09 07:57:44;;;;;;;5.80;3.60;;;;;;;22.98;34.45;98043.20;116374;1178;59514;-69
2021/09/09 08:00:15;;;;;;;4.10;3.00;;;;;;;23.52;34.16;98040.40;116383;1181;71142;-67
2021/09/09 08:02:44;;;;;;;5.10;3.90;;;;;;;24.16;33.95;98040.64;116354;1178;68526;-67
2021/09/09 08:05:14;;;;;;;5.00;3.20;;;;;;;24.01;33.31;98037.61;116310;1181;69224;-67
2021/09/09 08:07:44;;;;;;;4.30;2.90;;;;;;;24.61;30.81;98036.33;116246;1182;59582;-66
2021/09/09 08:10:16;;;;;;;4.00;2.60;;;;;;;25.09;29.40;98034.59;116394;1179;59546;-68
2021/09/09 08:12:47;;;;;;;5.40;3.10;;;;;;;24.78;29.42;98037.45;116347;1180;71270;-69
2021/09/09 08:15:17;;;;;;;4.50;2.70;;;;;;;24.97;29.30;98033.61;116361;1181;68257;-68
2021/09/09 08:17:46;;;;;;;7.50;3.00;;;;;;;25.55;27.77;98038.00;116318;1179;69901;-69
2021/09/09 08:20:16;;;;;;;5.20;2.80;;;;;;;25.83;26.06;98038.31;116295;1181;59537;-70
2021/09/09 08:22:45;;;;;;;5.40;3.30;;;;;;;26.10;26.15;98039.52;116271;1181;59520;-67
2021/09/09 08:25:14;;;;;;;3.80;2.70;;;;;;;25.57;27.18;98036.04;116271;1178;71205;-67
2021/09/09 08:27:43;;;;;;;;;;;;;;;25.87;26.64;98034.52;116333;1181;69124;-66
2021/09/09 08:30:12;;;;;;;4.50;2.90;;;;;;;25.86;26.98;98031.50;116277;1182;69301;-68
2021/09/09 08:32:41;;;;;;;4.80;2.60;;;;;;;25.90;26.58;98032.53;116304;1181;59565;-68
2021/09/09 08:35:10;;;;;;;;;;;;;;;25.72;27.44;98030.02;116340;1181;59543;-69
2021/09/09 08:37:39;;;;;;;3.20;2.40;;;;;;;25.75;27.66;98027.98;116280;1182;70903;-68
2021/09/09 08:40:09;;;;;;;4.40;2.90;;;;;;;26.17;27.39;98029.10;116287;1179;68132;-68
2021/09/09 08:42:42;;;;;;;4.00;3.20;;;;;;;26.02;26.97;98024.59;116314;1181;68457;-69
2021/09/09 08:45:13;;;;;;;4.70;3.20;;;;;;;26.06;26.15;98024.79;116316;1179;59543;-69
2021/09/09 08:47:47;;;;;;;3.50;2.70;;;;;;;24.88;27.49;98019.82;116321;1179;59585;-69
2021/09/09 08:50:16;;;;;;;3.80;2.50;;;;;;;25.52;27.41;98023.36;116360;1181;71405;-68
2021/09/09 08:52:48;;;;;;;4.10;3.40;;;;;;;25.74;27.42;98022.98;116245;1185;69086;-70
2021/09/09 08:55:19;;;;;;;4.80;2.80;;;;;;;26.43;26.23;98025.11;116296;1181;69452;-70
2021/09/09 08:57:48;;;;;;;4.10;3.10;;;;;;;25.43;26.72;98021.61;116291;1181;59563;-70
2021/09/09 09:00:17;;;;;;;6.40;2.80;;;;;;;25.05;27.65;98018.02;116300;1181;59568;-69
2021/09/09 09:02:51;;;;;;;4.80;3.00;;;;;;;25.64;26.72;98020.80;116258;1185;71165;-69
2021/09/09 09:05:22;;;;;;;4.00;2.90;;;;;;;25.35;27.15;98015.66;116274;1181;68293;-71
2021/09/09 09:08:02;;;;;;;5.30;2.80;;;;;;;25.75;27.16;98014.77;116293;1181;68395;-70
2021/09/09 09:10:33;;;;;;;5.80;3.60;;;;;;;26.40;26.47;98007.73;116302;1181;59553;-70
2021/09/09 09:13:02;;;;;;;3.30;2.30;;;;;;;27.08;25.90;98005.20;116319;1182;59543;-67
2021/09/09 09:15:32;;;;;;;3.90;2.50;;;;;;;27.82;24.13;98006.09;116306;1181;70698;-68
2021/09/09 09:18:07;;;;;;;4.30;2.40;;;;;;;28.34;23.22;97999.05;116299;1179;68811;-70
2021/09/09 09:20:45;;;;;;;3.80;2.60;;;;;;;27.22;23.43;97998.46;116291;1181;68546;-70
2021/09/09 09:23:19;;;;;;;4.50;2.40;;;;;;;27.24;23.59;97996.83;116262;1181;59525;-71
2021/09/09 09:25:52;;;;;;;4.80;3.00;;;;;;;27.02;23.32;97991.66;116253;1179;59556;-70
2021/09/09 09:29:07;;;;;;;3.10;2.40;;;;;;;27.10;24.07;97994.38;116334;1181;70784;-69
2021/09/09 09:31:36;;;;;;;3.70;2.50;;;;;;;28.12;23.05;97989.16;116258;1181;69070;-69
2021/09/09 09:34:09;;;;;;;3.30;2.60;;;;;;;28.69;23.04;97986.73;116298;1181;70356;-71
2021/09/09 09:36:40;;;;;;;4.50;2.30;;;;;;;29.04;21.71;97985.61;116364;1181;59504;-69
2021/09/09 09:39:19;;;;;;;5.80;3.00;;;;;;;29.27;21.84;97982.70;116300;1181;59543;-68
2021/09/09 09:41:54;;;;;;;4.70;2.00;;;;;;;29.53;22.87;97979.18;116294;1181;70647;-68
2021/09/09 09:44:38;;;;;;;5.40;2.60;;;;;;;29.92;22.32;97973.02;116336;1181;69116;-68
2021/09/09 09:47:21;;;;;;;5.40;2.90;;;;;;;30.41;21.79;97970.48;116298;1179;68271;-71
2021/09/09 09:49:55;;;;;;;4.10;2.90;;;;;;;30.91;20.68;97968.91;116266;1181;59518;-71
2021/09/09 09:52:29;;;;;;;3.00;2.30;;;;;;;31.22;20.14;97962.65;116371;1179;59530;-71
2021/09/09 09:55:00;;;;;;;3.50;2.40;;;;;;;31.14;20.71;97958.70;116231;1181;71153;-70
2021/09/09 09:57:30;;;;;;;4.40;2.80;;;;;;;31.26;19.83;97955.69;116263;1181;68770;-67
2021/09/09 09:59:59;;;;;;;4.00;2.40;;;;;;;31.09;20.04;97953.15;116267;1181;68419;-71
2021/09/09 10:02:28;;;;;;;6.30;3.20;;;;;;;31.29;19.52;97953.32;116246;1181;59485;-68
2021/09/09 10:05:00;;;;;;;3.50;2.10;;;;;;;31.17;19.62;97949.70;116311;1181;59517;-67
2021/09/09 10:07:29;;;;;;;4.50;3.20;;;;;;;31.25;20.55;97946.86;116306;1178;70405;-70
2021/09/09 10:09:59;;;;;;;2.70;2.10;;;;;;;31.64;20.45;97948.79;116265;1181;68455;-70
2021/09/09 10:12:29;;;;;;;4.60;2.40;;;;;;;32.21;19.31;97948.17;116264;1181;69371;-70
2021/09/09 10:15:01;;;;;;;3.80;2.50;;;;;;;32.57;18.02;97947.11;116316;1181;59514;-69
2021/09/09 10:17:32;;;;;;;5.00;2.60;;;;;;;32.49;18.66;97941.16;116356;1181;59485;-67
2021/09/09 10:20:41;;;;;;;7.50;3.70;;;;;;;31.95;18.45;97935.95;116328;1181;71445;-74
2021/09/09 10:23:14;;;;;;;2.90;2.10;;;;;;;32.04;19.26;97936.42;116005;1179;69253;-73
2021/09/09 10:25:54;;;;;;;4.20;3.20;;;;;;;32.67;17.41;97933.67;116009;1185;69745;-70
2021/09/09 10:28:32;;;;;;;3.90;2.40;;;;;;;32.52;17.46;97926.23;116022;1185;59597;-71
2021/09/09 10:31:06;;;;;;;3.30;2.30;;;;;;;32.33;17.45;97925.73;116019;1186;59684;-69
2021/09/09 10:33:40;;;;;;;4.00;2.40;;;;;;;31.95;17.93;97923.15;115977;1186;71402;-71
2021/09/09 10:36:39;;;;;;;3.40;2.40;;;;;;;32.26;17.66;97923.13;115957;1186;69121;-70
2021/09/09 10:39:08;;;;;;;;;;;;;;;32.48;17.14;97925.94;115968;1185;69323;-73
2021/09/09 10:41:38;;;;;;;3.90;2.40;;;;;;;32.47;17.23;97923.80;116087;1182;59536;-70
2021/09/09 10:44:09;;;;;;;4.50;3.10;;;;;;;32.64;17.68;97921.98;116011;1182;59678;-68
2021/09/09 10:46:44;;;;;;;4.30;2.70;;;;;;;33.01;17.08;97921.35;115956;1184;71351;-72
2021/09/09 10:49:19;;;;;;;3.30;2.30;;;;;;;33.05;16.59;97915.02;115990;1185;69020;-68
2021/09/09 10:52:07;;;;;;;4.30;2.70;;;;;;;33.34;16.86;97912.72;115948;1182;69342;-71
2021/09/09 10:55:10;;;;;;;3.40;2.40;;;;;;;33.49;16.24;97909.06;115972;1185;59703;-69
2021/09/09 10:57:40;;;;;;;3.20;2.20;;;;;;;33.63;15.51;97907.16;115923;1184;59627;-71
2021/09/09 11:00:09;;;;;;;2.70;1.90;;;;;;;34.31;15.92;97903.13;116254;1182;70694;-72
2021/09/09 11:02:45;;;;;;;3.70;2.30;;;;;;;35.10;14.80;97897.24;116312;1180;68444;-69
2021/09/09 11:05:15;;;;;;;3.70;2.50;;;;;;;35.72;14.56;97896.95;116309;1181;68563;-68
2021/09/09 11:07:44;;;;;;;3.40;2.20;;;;;;;36.08;14.14;97893.36;116302;1179;59542;-70
2021/09/09 11:10:13;;;;;;;3.60;2.30;;;;;;;35.85;13.91;97886.50;116289;1181;59606;-69
2021/09/09 11:13:00;;;;;;;3.90;2.50;;;;;;;34.65;14.35;97882.11;116300;1178;70567;-73
2021/09/09 11:15:33;;;;;;;3.10;2.00;;;;;;;34.45;14.26;97880.35;116334;1179;69264;-70
2021/09/09 11:18:03;;;;;;;3.50;2.40;;;;;;;34.77;14.53;97872.67;116339;1181;69257;-71
2021/09/09 11:20:32;;;;;;;3.10;1.90;;;;;;;35.00;14.02;97875.73;116313;1180;59536;-71
2021/09/09 11:23:11;;;;;;;4.00;2.10;;;;;;;35.22;13.67;97873.66;116295;1181;59527;-71
2021/09/09 11:25:40;;;;;;;3.50;2.30;;;;;;;35.71;13.73;97874.10;116302;1180;70601;-73
2021/09/09 11:28:19;;;;;;;4.50;2.70;;;;;;;35.90;13.48;97872.98;116274;1181;69271;-73
2021/09/09 11:31:06;;;;;;;;;;;;;;;34.66;13.59;97867.27;116295;1181;69337;-71
2021/09/09 11:34:05;;;;;;;3.40;2.30;;;;;;;35.95;13.76;97862.83;116307;1181;59911;-70
2021/09/09 11:36:39;;;;;;;2.90;1.80;;;;;;;36.18;13.19;97864.04;116121;1185;59609;-69
2021/09/09 11:39:14;;;;;;;5.30;2.30;;;;;;;36.01;12.88;97857.67;116161;1185;71900;-71
2021/09/09 11:41:43;;;;;;;4.80;2.70;;;;;;;36.00;12.59;97856.77;116228;1184;68711;-71
2021/09/09 11:44:32;;;;;;;3.80;2.50;;;;;;;35.40;13.34;97849.95;116196;1179;68407;-72
2021/09/09 11:47:09;;;;;;;;;;;;;;;34.92;14.06;97845.09;116238;1180;59540;-72
2021/09/09 11:49:38;;;;;;;3.60;2.40;;;;;;;35.07;13.73;97842.48;116228;1180;59593;-73